Time;durP1;ratioP1;P1;durP2;ratioP2;P2;SDS_P1;SDS_P2;PMS_P1;PMS_P2;Temp;Humidity;BMP_temperature;BMP_pressure;BME280_temperature;BME280_humidity;BME280_pressure;Samples;Min_cycle;Max_cycle;Signal;HPM_P1;HPM_P2
2022/04/21 00:01:53;;;;;;;2.57;2.37;;;11.10;51.80;;;;;;943862;148;27380;-74
2022/04/21 00:04:20;;;;;;;2.57;2.37;;;11.00;51.90;;;;;;944266;148;27484;-75
2022/04/21 00:06:47;;;;;;;2.60;2.40;;;11.00;52.10;;;;;;945345;148;27769;-74
2022/04/21 00:09:13;;;;;;;3.33;2.77;;;11.00;52.20;;;;;;945083;148;27739;-74
2022/04/21 00:11:40;;;;;;;2.60;2.40;;;10.90;52.20;;;;;;945201;149;27324;-74
2022/04/21 00:14:06;;;;;;;2.90;2.40;;;10.90;52.30;;;;;;945535;151;27426;-74
2022/04/21 00:16:33;;;;;;;2.40;2.20;;;10.90;52.30;;;;;;944906;149;27351;-74
2022/04/21 00:19:00;;;;;;;2.67;2.37;;;10.80;52.30;;;;;;944270;149;27345;-74
2022/04/21 00:23:25;;;;;;;2.97;2.50;;;10.80;52.50;;;;;;944939;149;27668;-74
2022/04/21 00:23:53;;;;;;;2.27;1.80;;;10.70;52.50;;;;;;949097;146;27868;-74
2022/04/21 00:26:19;;;;;;;2.30;2.07;;;10.70;52.50;;;;;;952606;146;27421;-74
2022/04/21 00:28:46;;;;;;;3.27;2.33;;;10.60;52.50;;;;;;952914;146;27664;-74
2022/04/21 00:31:14;;;;;;;3.30;2.23;;;10.50;52.60;;;;;;953368;146;27320;-74
2022/04/21 00:33:39;;;;;;;3.70;2.63;;;10.40;52.80;;;;;;953573;146;27280;-74
2022/04/21 00:36:06;;;;;;;2.60;2.40;;;10.40;53.00;;;;;;952738;146;27326;-74
2022/04/21 00:38:32;;;;;;;2.70;2.50;;;10.30;53.10;;;;;;952897;146;27284;-74
2022/04/21 00:40:59;;;;;;;3.40;2.80;;;10.30;53.20;;;;;;952444;146;27374;-74
2022/04/21 00:43:25;;;;;;;3.03;2.70;;;10.20;53.30;;;;;;953170;146;27432;-74
2022/04/21 00:45:52;;;;;;;5.13;2.53;;;10.20;53.50;;;;;;952872;146;27428;-74
2022/04/21 00:48:19;;;;;;;2.77;2.40;;;10.10;53.70;;;;;;952878;146;27697;-74
2022/04/21 00:50:45;;;;;;;6.80;2.90;;;10.10;53.70;;;;;;953323;146;27783;-74
2022/04/21 00:53:12;;;;;;;2.60;2.20;;;10.10;53.90;;;;;;953159;146;27428;-74
2022/04/21 00:55:38;;;;;;;2.50;2.30;;;10.00;54.00;;;;;;953137;146;28046;-74
2022/04/21 00:58:05;;;;;;;2.40;2.20;;;10.00;54.00;;;;;;952373;146;27272;-75
2022/04/21 01:00:32;;;;;;;2.37;2.10;;;10.00;54.10;;;;;;953337;146;27409;-74
2022/04/21 01:02:58;;;;;;;2.63;2.17;;;10.00;54.20;;;;;;953503;146;27469;-74
2022/04/21 01:05:34;;;;;;;2.40;2.20;;;9.90;54.20;;;;;;951915;146;27339;-74
2022/04/21 01:07:51;;;;;;;3.77;2.43;;;9.90;54.30;;;;;;950229;146;27478;-74
2022/04/21 01:10:18;;;;;;;2.10;2.00;;;9.90;54.40;;;;;;953596;146;27276;-74
2022/04/21 01:12:45;;;;;;;2.83;2.40;;;9.90;54.40;;;;;;952893;146;27432;-74
2022/04/21 01:15:11;;;;;;;2.80;2.53;;;9.80;54.50;;;;;;953632;146;27272;-74
2022/04/21 01:17:38;;;;;;;2.90;2.70;;;9.80;54.50;;;;;;952996;146;27351;-74
2022/04/21 01:20:04;;;;;;;6.17;3.80;;;9.80;54.60;;;;;;951930;146;27467;-74
2022/04/21 01:22:31;;;;;;;3.90;3.57;;;9.70;55.30;;;;;;952886;145;28782;-74
2022/04/21 01:24:57;;;;;;;2.90;2.70;;;9.70;54.60;;;;;;944000;148;27371;-74
2022/04/21 01:27:24;;;;;;;3.80;3.27;;;9.70;54.80;;;;;;942967;148;27752;-75
2022/04/21 01:29:51;;;;;;;3.93;2.80;;;9.60;55.00;;;;;;943996;148;28183;-75
2022/04/21 01:32:17;;;;;;;4.20;2.80;;;9.60;55.20;;;;;;943718;148;27357;-74
2022/04/21 01:34:44;;;;;;;3.37;3.07;;;9.50;55.30;;;;;;944937;148;27341;-74
2022/04/21 01:42:40;;;;;;;2.73;2.53;;;9.40;55.40;;;;;;943580;148;27349;-75
2022/04/21 01:45:07;;;;;;;2.70;2.50;;;9.40;55.50;;;;;;943674;148;27468;-75
2022/04/21 01:47:33;;;;;;;2.90;2.60;;;9.30;55.50;;;;;;943930;148;27714;-74
2022/04/21 01:50:00;;;;;;;2.30;2.10;;;9.30;55.60;;;;;;944015;148;27320;-75
2022/04/21 01:52:26;;;;;;;2.77;2.07;;;9.20;55.90;;;;;;944703;148;27425;-74
2022/04/21 01:54:53;;;;;;;3.37;2.87;;;9.20;55.80;;;;;;944039;148;27336;-75
2022/04/21 01:57:20;;;;;;;3.63;2.63;;;9.20;56.00;;;;;;943390;148;27301;-75
2022/04/21 01:59:46;;;;;;;2.40;2.20;;;9.10;56.00;;;;;;944283;148;27369;-74
2022/04/21 02:02:12;;;;;;;3.73;2.50;;;9.10;56.10;;;;;;942490;148;27500;-75
2022/04/21 02:04:39;;;;;;;3.23;2.50;;;9.00;56.30;;;;;;943365;148;27341;-75
2022/04/21 02:07:06;;;;;;;3.20;2.90;;;9.00;56.40;;;;;;944472;148;27929;-74
2022/04/21 02:09:32;;;;;;;4.17;2.70;;;9.00;56.40;;;;;;943428;148;27320;-74
2022/04/21 02:11:59;;;;;;;3.23;2.40;;;9.00;56.30;;;;;;942595;148;27447;-74
2022/04/21 02:14:25;;;;;;;3.00;2.70;;;8.90;56.40;;;;;;943362;148;27353;-74
2022/04/21 02:16:52;;;;;;;2.53;2.33;;;8.90;56.00;;;;;;943687;148;27773;-74
2022/04/21 02:19:19;;;;;;;3.43;2.40;;;8.90;56.70;;;;;;938150;150;27403;-74
2022/04/21 02:21:45;;;;;;;2.80;2.43;;;8.90;56.80;;;;;;938472;150;27284;-74
2022/04/21 02:24:12;;;;;;;3.17;2.43;;;8.80;56.90;;;;;;932348;150;27468;-74
2022/04/21 02:26:38;;;;;;;3.13;2.83;;;8.80;57.00;;;;;;927852;152;27476;-74
2022/04/21 02:29:05;;;;;;;2.07;1.83;;;8.80;57.10;;;;;;928694;152;27500;-74
2022/04/21 02:31:32;;;;;;;2.30;2.10;;;8.70;57.10;;;;;;944712;148;27341;-74
2022/04/21 02:33:58;;;;;;;2.47;2.27;;;8.70;57.10;;;;;;944657;148;27406;-74
2022/04/21 02:36:25;;;;;;;2.70;2.50;;;8.70;57.10;;;;;;945242;148;27300;-74
2022/04/21 02:38:51;;;;;;;2.73;2.50;;;8.70;57.10;;;;;;945126;151;27376;-74
2022/04/21 02:41:18;;;;;;;3.23;2.60;;;8.60;57.40;;;;;;944886;151;27351;-73
2022/04/21 02:43:44;;;;;;;2.70;2.50;;;8.60;57.40;;;;;;945371;151;27776;-73
2022/04/21 02:46:13;;;;;;;2.77;2.57;;;8.50;57.50;;;;;;944804;151;27386;-73
2022/04/21 02:48:38;;;;;;;3.53;2.83;;;8.50;57.70;;;;;;943926;148;27402;-73
2022/04/21 02:51:04;;;;;;;4.27;3.87;;;8.50;57.90;;;;;;943615;148;27353;-73
2022/04/21 02:59:00;;;;;;;3.47;3.27;;;8.40;58.10;;;;;;944399;148;27855;-74
2022/04/21 03:01:27;;;;;;;4.10;3.60;;;8.40;58.20;;;;;;944501;148;27378;-73
2022/04/21 03:03:56;;;;;;;4.23;3.10;;;8.30;58.30;;;;;;943737;148;27457;-73
2022/04/21 03:06:22;;;;;;;3.80;3.43;;;8.30;58.40;;;;;;944200;148;27364;-73
2022/04/21 03:08:49;;;;;;;3.50;3.17;;;8.30;58.50;;;;;;944873;148;27341;-73
2022/04/21 03:11:16;;;;;;;3.27;3.00;;;8.30;58.60;;;;;;944774;151;27398;-73
2022/04/21 03:13:42;;;;;;;3.83;3.10;;;8.30;58.60;;;;;;944394;148;27390;-73
2022/04/21 03:16:09;;;;;;;3.20;2.90;;;8.30;58.60;;;;;;944724;148;27347;-73
2022/04/21 03:18:35;;;;;;;2.90;2.70;;;8.30;58.70;;;;;;943215;148;27459;-73
2022/04/21 03:26:31;;;;;;;6.20;3.03;;;8.30;58.70;;;;;;943579;148;27508;-73
2022/04/21 03:28:58;;;;;;;3.57;2.70;;;8.30;58.60;;;;;;943332;148;27602;-73
2022/04/21 03:31:24;;;;;;;5.83;2.80;;;8.40;58.90;;;;;;943291;148;27361;-73
2022/04/21 03:33:51;;;;;;;2.93;2.73;;;8.40;58.90;;;;;;941810;148;28355;-73
2022/04/21 03:36:18;;;;;;;17.80;6.93;;;8.40;59.00;;;;;;943527;148;27438;-73
2022/04/21 03:38:44;;;;;;;9.20;5.00;;;8.40;59.20;;;;;;943788;148;27306;-73
2022/04/21 03:41:11;;;;;;;4.33;3.10;;;8.40;59.40;;;;;;944045;148;27345;-73
2022/04/21 03:43:37;;;;;;;3.90;3.50;;;8.40;59.40;;;;;;942057;148;27437;-73
2022/04/21 03:46:04;;;;;;;3.37;3.00;;;8.50;59.60;;;;;;943634;148;27357;-73
2022/04/21 03:48:30;;;;;;;3.70;3.00;;;8.50;59.50;;;;;;940829;148;27749;-74
2022/04/21 03:50:57;;;;;;;4.67;2.97;;;8.40;59.50;;;;;;929623;150;27758;-74
2022/04/21 03:53:24;;;;;;;3.37;3.07;;;8.50;59.60;;;;;;927345;150;27353;-74
2022/04/21 03:55:50;;;;;;;3.40;2.90;;;8.50;59.60;;;;;;926223;151;27385;-73
2022/04/21 03:58:17;;;;;;;3.77;3.10;;;8.50;59.80;;;;;;926638;152;27388;-74
2022/04/21 04:00:43;;;;;;;3.03;2.80;;;8.50;59.70;;;;;;927321;152;28961;-73
2022/04/21 04:03:10;;;;;;;3.97;3.47;;;8.60;59.80;;;;;;927336;152;27385;-73
2022/04/21 04:05:37;;;;;;;2.90;2.70;;;8.60;59.70;;;;;;924452;151;27489;-73
2022/04/21 04:10:53;;;;;;;4.67;3.10;;;8.70;59.80;;;;;;927731;152;27417;-73
2022/04/21 04:13:20;;;;;;;4.37;2.83;;;8.70;59.80;;;;;;923646;152;27450;-73
2022/04/21 04:15:48;;;;;;;3.77;3.10;;;8.70;59.90;;;;;;942213;148;28065;-73
2022/04/21 04:18:13;;;;;;;3.97;3.03;;;8.80;59.90;;;;;;943442;148;27329;-73
2022/04/21 04:20:40;;;;;;;3.03;2.83;;;8.80;59.80;;;;;;943119;148;27361;-74
2022/04/21 04:23:06;;;;;;;3.50;3.20;;;8.90;59.70;;;;;;943485;148;27363;-73
2022/04/21 04:25:33;;;;;;;4.63;4.20;;;9.00;59.60;;;;;;944392;148;27373;-73
2022/04/21 04:27:59;;;;;;;5.17;3.93;;;9.00;59.70;;;;;;944045;148;27406;-73
2022/04/21 04:30:26;;;;;;;4.40;4.03;;;9.10;59.70;;;;;;942810;148;27465;-73
2022/04/21 04:32:53;;;;;;;4.23;3.83;;;9.10;59.70;;;;;;944179;148;27348;-74
2022/04/21 04:35:19;;;;;;;5.90;4.30;;;9.20;59.90;;;;;;943099;148;27434;-74
2022/04/21 04:37:46;;;;;;;4.40;3.90;;;9.20;59.70;;;;;;941317;148;27841;-74
2022/04/21 04:40:12;;;;;;;3.93;3.63;;;9.30;59.70;;;;;;943958;148;27376;-73
2022/04/21 04:42:39;;;;;;;3.43;3.23;;;9.30;59.80;;;;;;943375;148;28260;-73
2022/04/21 04:47:51;;;;;;;3.70;3.40;;;9.40;59.90;;;;;;942562;148;27838;-73
2022/04/21 04:50:17;;;;;;;4.73;3.70;;;9.50;60.50;;;;;;943332;148;27466;-73
2022/04/21 04:52:44;;;;;;;4.87;4.37;;;9.50;59.80;;;;;;944386;148;27807;-73
2022/04/21 04:55:11;;;;;;;4.83;4.20;;;9.60;59.90;;;;;;944356;148;27382;-73
2022/04/21 04:57:38;;;;;;;4.23;3.90;;;9.60;59.70;;;;;;942339;149;27420;-73
2022/04/21 05:00:03;;;;;;;4.83;4.33;;;9.70;59.70;;;;;;944048;149;27302;-73
2022/04/21 05:02:30;;;;;;;4.23;3.83;;;9.80;59.90;;;;;;942003;149;27527;-73
2022/04/21 05:04:57;;;;;;;4.23;3.80;;;9.80;59.80;;;;;;944090;149;27365;-73
2022/04/21 05:07:23;;;;;;;5.60;4.63;;;9.90;59.90;;;;;;943186;149;27324;-73
2022/04/21 05:09:50;;;;;;;4.60;4.20;;;10.00;59.90;;;;;;943346;149;27411;-74
2022/04/21 05:12:18;;;;;;;4.03;3.73;;;10.10;60.00;;;;;;943540;149;27430;-73
2022/04/21 05:14:43;;;;;;;5.00;3.50;;;10.20;60.00;;;;;;943545;149;27452;-73
2022/04/21 05:17:10;;;;;;;3.50;3.20;;;10.20;59.90;;;;;;943881;149;27361;-74
2022/04/21 05:19:36;;;;;;;3.40;3.20;;;10.30;59.90;;;;;;943633;149;27374;-74
2022/04/21 05:22:06;;;;;;;5.43;3.90;;;10.30;59.80;;;;;;943912;149;27306;-74
2022/04/21 05:24:32;;;;;;;4.00;3.60;;;10.40;59.60;;;;;;940600;149;27473;-74
2022/04/21 05:26:59;;;;;;;6.93;3.53;;;10.50;59.40;;;;;;944113;149;27409;-74
2022/04/21 05:32:10;;;;;;;3.80;3.50;;;10.60;59.50;;;;;;943707;149;27345;-74
2022/04/21 05:34:37;;;;;;;3.13;2.83;;;10.70;59.50;;;;;;943942;149;28037;-74
2022/04/21 05:37:03;;;;;;;3.17;2.90;;;10.70;59.40;;;;;;943410;149;27337;-74
2022/04/21 05:39:30;;;;;;;4.00;3.60;;;10.80;59.60;;;;;;942977;149;27397;-74
2022/04/21 05:41:59;;;;;;;3.67;3.23;;;10.90;59.50;;;;;;942643;149;27375;-74
2022/04/21 05:44:27;;;;;;;3.43;3.13;;;11.00;59.50;;;;;;944081;149;27474;-74
2022/04/21 05:46:53;;;;;;;3.47;3.17;;;11.10;59.50;;;;;;943000;149;27342;-74
2022/04/21 05:49:19;;;;;;;3.57;3.23;;;11.10;59.40;;;;;;943875;149;27414;-74
2022/04/21 05:51:48;;;;;;;3.50;3.20;;;11.20;59.40;;;;;;943421;149;27348;-74
2022/04/21 05:54:15;;;;;;;3.37;3.07;;;11.30;59.30;;;;;;943611;149;27487;-74
2022/04/21 05:56:41;;;;;;;4.00;3.40;;;11.40;59.20;;;;;;943169;149;27278;-74
2022/04/21 05:59:08;;;;;;;3.47;3.23;;;11.50;59.20;;;;;;944350;149;27885;-74
2022/04/21 06:01:35;;;;;;;2.87;2.63;;;11.60;59.10;;;;;;943901;149;27314;-74
2022/04/21 06:04:01;;;;;;;4.30;3.10;;;11.80;59.10;;;;;;942168;149;28077;-74
2022/04/21 06:06:28;;;;;;;3.27;2.77;;;11.90;59.00;;;;;;944346;149;28006;-74
2022/04/21 06:08:54;;;;;;;3.87;3.20;;;12.00;59.10;;;;;;943949;149;27306;-74
2022/04/21 06:11:22;;;;;;;6.40;3.33;;;12.20;59.10;;;;;;943944;149;27317;-74
2022/04/21 06:13:47;;;;;;;4.43;3.40;;;12.30;59.00;;;;;;943446;149;27375;-74
2022/04/21 06:16:14;;;;;;;3.63;3.20;;;12.50;59.00;;;;;;943473;148;27325;-74
2022/04/21 06:18:40;;;;;;;4.13;3.30;;;12.60;58.80;;;;;;943916;149;27360;-73
2022/04/21 06:21:07;;;;;;;3.57;3.20;;;12.80;58.70;;;;;;943580;149;27879;-73
2022/04/21 06:23:34;;;;;;;3.50;3.20;;;13.00;58.60;;;;;;944391;149;27345;-73
2022/04/21 06:26:01;;;;;;;3.57;3.23;;;13.20;58.50;;;;;;941850;149;27458;-74
2022/04/21 06:28:27;;;;;;;4.10;3.27;;;13.40;58.40;;;;;;944898;149;27820;-74
2022/04/21 06:30:53;;;;;;;3.73;3.40;;;13.60;57.70;;;;;;945629;148;27386;-74
2022/04/21 06:33:20;;;;;;;3.67;3.37;;;13.80;57.90;;;;;;945043;149;27359;-73
2022/04/21 06:35:47;;;;;;;3.30;3.00;;;14.00;57.40;;;;;;944998;149;27357;-74
2022/04/21 06:38:13;;;;;;;3.50;3.20;;;14.10;57.10;;;;;;945910;149;27366;-74
2022/04/21 06:40:40;;;;;;;3.87;3.57;;;14.20;57.00;;;;;;945530;149;27342;-74
2022/04/21 06:48:38;;;;;;;4.17;3.50;;;14.50;56.50;;;;;;945442;149;27341;-74
2022/04/21 06:51:05;;;;;;;4.70;3.73;;;14.60;56.30;;;;;;944816;149;27306;-73
2022/04/21 06:53:34;;;;;;;3.90;3.60;;;14.70;56.30;;;;;;945759;149;27329;-74
2022/04/21 06:55:58;;;;;;;9.40;3.87;;;14.80;56.30;;;;;;945349;149;27344;-74
2022/04/21 06:58:25;;;;;;;4.00;3.60;;;14.90;56.10;;;;;;945276;149;27369;-73
2022/04/21 07:00:51;;;;;;;3.47;3.17;;;15.00;56.00;;;;;;945705;149;27547;-73
2022/04/21 07:03:18;;;;;;;4.70;3.50;;;15.10;55.70;;;;;;944746;149;27412;-74
2022/04/21 07:05:45;;;;;;;5.83;3.90;;;15.10;55.40;;;;;;944509;149;27417;-74
2022/04/21 07:08:11;;;;;;;3.07;2.77;;;15.20;55.20;;;;;;945768;149;27356;-74
2022/04/21 07:10:38;;;;;;;5.37;3.30;;;15.20;55.10;;;;;;945604;149;27345;-74
2022/04/21 07:13:10;;;;;;;3.80;3.50;;;15.20;55.00;;;;;;945818;149;27373;-74
2022/04/21 07:15:37;;;;;;;3.50;3.20;;;15.20;54.90;;;;;;944857;149;27333;-74
2022/04/21 07:18:04;;;;;;;3.83;3.47;;;15.30;54.90;;;;;;945431;149;27321;-74
2022/04/21 07:20:30;;;;;;;3.90;3.23;;;15.20;54.80;;;;;;944587;149;27410;-73
2022/04/21 07:22:57;;;;;;;3.63;3.33;;;15.30;54.80;;;;;;945093;149;27329;-74
2022/04/21 07:25:23;;;;;;;3.60;3.30;;;15.20;54.60;;;;;;945016;149;27458;-74
2022/04/21 07:27:51;;;;;;;3.00;2.70;;;15.20;54.60;;;;;;945850;149;27821;-74
2022/04/21 07:30:17;;;;;;;3.10;2.80;;;15.30;54.60;;;;;;945047;151;27324;-74
2022/04/21 07:32:46;;;;;;;3.20;2.90;;;15.20;54.50;;;;;;945319;151;27422;-74
2022/04/21 07:35:13;;;;;;;9.47;3.17;;;15.20;54.50;;;;;;945145;151;27411;-74
2022/04/21 07:37:39;;;;;;;3.47;3.10;;;15.20;54.50;;;;;;945610;151;27365;-73
2022/04/21 07:40:06;;;;;;;3.73;2.97;;;15.20;54.50;;;;;;945806;149;27445;-73
2022/04/21 07:42:33;;;;;;;3.07;2.80;;;15.20;54.50;;;;;;944452;151;27310;-73
2022/04/21 07:45:02;;;;;;;3.43;3.13;;;15.20;54.60;;;;;;943521;151;27349;-73
2022/04/21 07:47:29;;;;;;;3.03;2.83;;;15.20;54.70;;;;;;944896;151;27290;-73
2022/04/21 07:49:56;;;;;;;5.57;2.43;;;15.30;54.70;;;;;;945591;151;27883;-73
2022/04/21 07:55:14;;;;;;;2.97;2.70;;;15.40;54.80;;;;;;944483;151;27310;-73
2022/04/21 07:57:39;;;;;;;3.93;2.80;;;15.60;54.80;;;;;;944034;151;27410;-73
2022/04/21 08:00:05;;;;;;;3.13;2.83;;;15.60;54.80;;;;;;945209;151;27337;-73
2022/04/21 08:02:32;;;;;;;2.80;2.60;;;15.80;54.70;;;;;;944996;149;27408;-73
2022/04/21 08:04:59;;;;;;;2.70;2.50;;;15.90;54.60;;;;;;944972;149;27455;-73
2022/04/21 08:07:25;;;;;;;4.00;2.43;;;16.00;54.40;;;;;;944901;149;28070;-74
2022/04/21 08:09:52;;;;;;;3.00;2.73;;;16.20;54.40;;;;;;945328;149;27694;-73
2022/04/21 08:12:18;;;;;;;2.60;2.40;;;16.30;54.30;;;;;;944780;151;27298;-73
2022/04/21 08:14:45;;;;;;;3.90;2.57;;;16.40;54.20;;;;;;944829;151;27285;-73
2022/04/21 08:17:12;;;;;;;3.30;3.00;;;16.60;54.10;;;;;;945537;151;27341;-73
2022/04/21 08:19:38;;;;;;;2.47;2.27;;;16.70;54.00;;;;;;945419;151;27470;-73
2022/04/21 08:22:06;;;;;;;3.08;2.70;;;17.00;54.00;;;;;;945624;149;27324;-74
2022/04/21 08:32:46;;;;;;;3.25;2.25;;;17.90;53.00;;;;;;948379;151;27452;-73
2022/04/21 08:35:15;;;;;;;4.05;2.60;;;18.10;52.70;;;;;;947784;151;27505;-74
2022/04/21 08:37:39;;;;;;;2.40;2.27;;;18.20;52.50;;;;;;947723;151;27344;-73
2022/04/21 08:40:06;;;;;;;2.47;2.27;;;18.40;52.20;;;;;;947162;151;27305;-74
2022/04/21 08:42:32;;;;;;;3.55;2.45;;;18.60;52.00;;;;;;947356;151;27375;-74
2022/04/21 08:44:59;;;;;;;3.87;2.52;;;18.80;51.80;;;;;;947509;151;27407;-74
2022/04/21 08:47:29;;;;;;;2.42;2.22;;;19.00;51.80;;;;;;948286;151;27438;-74
2022/04/21 08:50:00;;;;;;;3.42;2.12;;;19.30;51.80;;;;;;947742;151;27376;-74
2022/04/21 08:52:27;;;;;;;2.83;2.20;;;19.80;52.20;;;;;;947500;148;27329;-74
2022/04/21 08:54:54;;;;;;;2.90;2.05;;;20.40;52.70;;;;;;948377;151;27322;-74
2022/04/21 08:57:20;;;;;;;2.42;2.20;;;21.20;52.60;;;;;;948285;151;27348;-74
2022/04/21 08:59:47;;;;;;;2.00;1.90;;;22.00;52.20;;;;;;947132;151;27345;-74
2022/04/21 09:02:13;;;;;;;2.22;2.02;;;22.90;51.70;;;;;;947017;151;27322;-74
2022/04/21 09:04:41;;;;;;;2.40;1.80;;;23.90;50.60;;;;;;947731;148;27471;-74
2022/04/21 09:07:16;;;;;;;2.27;2.00;;;24.90;49.50;;;;;;948071;151;27286;-74
2022/04/21 09:10:04;;;;;;;2.67;1.57;;;25.80;48.60;;;;;;948054;148;27387;-74
2022/04/21 09:12:27;;;;;;;1.75;1.65;;;26.80;48.10;;;;;;947194;151;27369;-74
2022/04/21 09:14:54;;;;;;;2.25;1.75;;;27.70;47.10;;;;;;948023;151;27377;-74
2022/04/21 09:17:20;;;;;;;2.25;2.05;;;28.50;45.50;;;;;;947196;148;27328;-74
2022/04/21 09:19:59;;;;;;;2.80;2.10;;;29.10;44.10;;;;;;947788;151;27419;-74
2022/04/21 09:22:25;;;;;;;1.65;1.55;;;29.60;42.20;;;;;;947615;148;27957;-74
2022/04/21 09:24:53;;;;;;;1.70;1.60;;;30.00;41.90;;;;;;948026;151;27449;-74
2022/04/21 09:27:19;;;;;;;2.60;1.77;;;30.40;41.40;;;;;;947879;148;27438;-74
2022/04/21 09:29:45;;;;;;;1.80;1.67;;;30.70;40.40;;;;;;944428;149;27362;-74
2022/04/21 09:32:12;;;;;;;1.95;1.72;;;31.00;40.00;;;;;;941810;148;27334;-74
2022/04/21 09:34:38;;;;;;;2.00;1.80;;;31.30;39.40;;;;;;942841;149;27418;-74
2022/04/21 09:37:07;;;;;;;2.00;1.90;;;31.50;38.00;;;;;;944100;149;27439;-74
2022/04/21 09:39:40;;;;;;;2.35;1.70;;;31.70;38.00;;;;;;943752;149;28306;-75
2022/04/21 09:42:06;;;;;;;1.95;1.72;;;31.70;37.40;;;;;;944171;149;27707;-75
2022/04/21 09:47:21;;;;;;;2.72;1.77;;;31.90;37.30;;;;;;944000;149;27419;-75
2022/04/21 09:49:47;;;;;;;1.70;1.60;;;32.00;37.50;;;;;;943670;149;27378;-74
2022/04/21 09:52:14;;;;;;;4.10;1.80;;;32.10;35.60;;;;;;942803;149;27365;-75
2022/04/21 09:54:40;;;;;;;2.12;1.80;;;32.00;35.40;;;;;;941581;149;27275;-75
2022/04/21 09:57:07;;;;;;;4.12;1.75;;;31.80;35.10;;;;;;943490;149;27333;-75
2022/04/21 09:59:36;;;;;;;2.45;1.70;;;31.60;35.00;;;;;;943856;148;27317;-75
2022/04/21 10:02:03;;;;;;;1.60;1.50;;;31.30;34.70;;;;;;943640;149;27381;-74
2022/04/21 10:04:29;;;;;;;3.08;1.80;;;31.00;34.60;;;;;;943515;149;27424;-74
2022/04/21 10:06:56;;;;;;;2.00;1.90;;;30.60;33.90;;;;;;943844;149;27356;-74
2022/04/21 10:09:22;;;;;;;2.17;1.70;;;30.30;34.50;;;;;;943492;149;27325;-74
2022/04/21 10:11:49;;;;;;;2.15;1.95;;;29.90;34.30;;;;;;943817;149;27430;-74
2022/04/21 10:14:17;;;;;;;2.33;1.80;;;29.60;34.70;;;;;;943287;148;27442;-74
2022/04/21 10:16:42;;;;;;;2.67;1.77;;;29.40;35.00;;;;;;942832;149;27348;-74
2022/04/21 10:19:09;;;;;;;1.85;1.72;;;29.20;34.90;;;;;;944237;149;27286;-74
2022/04/21 10:21:38;;;;;;;2.00;1.80;;;29.00;35.00;;;;;;943275;149;27369;-74
2022/04/21 10:24:04;;;;;;;2.95;1.85;;;28.80;35.00;;;;;;944286;149;27358;-74
2022/04/21 10:26:37;;;;;;;3.12;1.90;;;28.70;35.10;;;;;;943231;149;27459;-74
2022/04/21 10:29:20;;;;;;;3.67;2.02;;;28.50;34.70;;;;;;944477;149;27469;-74
2022/04/21 10:31:45;;;;;;;1.98;1.87;;;28.30;34.40;;;;;;944441;149;27459;-74
2022/04/21 10:34:12;;;;;;;2.42;1.92;;;28.00;34.50;;;;;;944020;151;27313;-74
2022/04/21 10:36:41;;;;;;;1.90;1.80;;;27.70;34.50;;;;;;943523;151;27378;-74
2022/04/21 10:39:17;;;;;;;3.62;2.33;;;27.40;34.60;;;;;;944763;149;27354;-74
2022/04/21 10:41:43;;;;;;;2.00;1.80;;;27.20;34.90;;;;;;943842;151;27629;-74
2022/04/21 10:44:16;;;;;;;1.77;1.67;;;26.90;35.00;;;;;;945451;151;27824;-74
2022/04/21 10:46:42;;;;;;;1.50;1.40;;;26.70;35.00;;;;;;945043;151;27349;-74
2022/04/21 10:49:13;;;;;;;5.70;1.85;;;26.50;34.80;;;;;;945092;151;27802;-74
2022/04/21 10:57:13;;;;;;;1.70;1.60;;;25.70;35.60;;;;;;944751;151;27414;-74
2022/04/21 10:59:58;;;;;;;1.47;1.42;;;25.50;35.90;;;;;;945590;149;27447;-74
2022/04/21 11:02:25;;;;;;;1.80;1.70;;;25.30;36.30;;;;;;945242;151;27366;-74
2022/04/21 11:04:51;;;;;;;2.42;1.72;;;25.20;36.60;;;;;;943314;151;27538;-74
2022/04/21 11:07:18;;;;;;;4.05;1.80;;;25.20;36.60;;;;;;943597;151;27350;-74
2022/04/21 11:09:47;;;;;;;1.60;1.50;;;25.20;36.70;;;;;;945601;151;27445;-74
2022/04/21 11:12:12;;;;;;;2.10;1.90;;;25.20;36.90;;;;;;944434;148;27418;-74
2022/04/21 11:14:39;;;;;;;4.03;2.05;;;25.20;36.50;;;;;;944528;151;27369;-74
2022/04/21 11:17:04;;;;;;;2.60;1.65;;;25.20;36.50;;;;;;944389;151;27350;-74
2022/04/21 11:19:34;;;;;;;1.95;1.82;;;25.20;36.60;;;;;;945071;151;27404;-74
2022/04/21 11:22:01;;;;;;;2.60;1.42;;;25.20;36.80;;;;;;944981;151;27294;-74
2022/04/21 11:24:27;;;;;;;1.92;1.57;;;25.20;37.00;;;;;;943181;151;27322;-74
2022/04/21 11:26:57;;;;;;;1.87;1.77;;;25.20;37.00;;;;;;944630;151;27295;-74
2022/04/21 11:29:23;;;;;;;1.62;1.52;;;25.30;37.00;;;;;;944754;150;27935;-74
2022/04/21 11:31:56;;;;;;;2.62;2.00;;;25.30;37.10;;;;;;945027;151;27381;-74
2022/04/21 11:34:22;;;;;;;3.10;2.10;;;25.40;36.90;;;;;;944977;151;27325;-74
2022/04/21 11:36:49;;;;;;;2.00;1.80;;;25.40;36.60;;;;;;944909;151;27397;-73
2022/04/21 11:39:15;;;;;;;1.57;1.42;;;25.40;36.60;;;;;;944982;151;27293;-73
2022/04/21 11:41:44;;;;;;;4.05;1.72;;;25.30;36.50;;;;;;945045;151;27446;-73
2022/04/21 11:44:09;;;;;;;2.00;1.65;;;25.20;36.30;;;;;;945433;151;27427;-73
2022/04/21 11:46:39;;;;;;;1.55;1.45;;;25.10;36.20;;;;;;944975;151;27865;-73
2022/04/21 11:49:05;;;;;;;1.70;1.50;;;25.00;36.30;;;;;;945396;151;27337;-74
2022/04/21 11:51:31;;;;;;;1.70;1.60;;;24.80;36.50;;;;;;945161;151;27274;-73
2022/04/21 11:54:04;;;;;;;2.33;2.12;;;24.70;36.60;;;;;;945392;151;27423;-73
2022/04/21 11:56:30;;;;;;;1.90;1.65;;;24.60;36.70;;;;;;944936;151;27310;-73
2022/04/21 11:58:57;;;;;;;1.60;1.50;;;24.50;36.90;;;;;;945419;149;27430;-73
2022/04/21 12:06:58;;;;;;;1.47;1.37;;;24.40;37.30;;;;;;945080;151;27455;-73
2022/04/21 12:09:34;;;;;;;2.33;2.12;;;24.40;37.40;;;;;;945128;151;27358;-73
2022/04/21 12:12:00;;;;;;;1.45;1.35;;;24.40;37.30;;;;;;944570;151;27476;-73
2022/04/21 12:14:27;;;;;;;1.60;1.50;;;24.50;37.30;;;;;;945185;151;27304;-73
2022/04/21 12:17:02;;;;;;;1.40;1.30;;;24.50;37.20;;;;;;945613;151;27437;-73
2022/04/21 12:19:42;;;;;;;3.65;1.00;;;24.50;37.20;;;;;;944285;151;28229;-73
2022/04/21 12:22:13;;;;;;;1.02;1.00;;;24.60;37.00;;;;;;945080;151;27802;-73
2022/04/21 12:24:51;;;;;;;1.98;1.17;;;24.50;36.70;;;;;;945509;151;28061;-73
2022/04/21 12:27:18;;;;;;;1.95;0.90;;;24.50;36.60;;;;;;945251;151;27436;-73
2022/04/21 12:29:51;;;;;;;1.65;1.20;;;24.40;36.40;;;;;;944448;149;27863;-73
2022/04/21 12:32:25;;;;;;;1.50;1.40;;;24.20;36.30;;;;;;943821;149;27337;-73
2022/04/21 12:34:54;;;;;;;0.95;0.88;;;24.00;36.20;;;;;;943471;149;27361;-73
2022/04/21 12:37:25;;;;;;;2.90;1.50;;;23.90;36.60;;;;;;942983;149;27353;-73
2022/04/21 12:39:51;;;;;;;1.30;1.30;;;23.70;37.30;;;;;;944203;149;27446;-73
2022/04/21 12:42:19;;;;;;;2.30;1.50;;;23.50;36.90;;;;;;943951;149;27674;-73
2022/04/21 12:44:44;;;;;;;2.12;1.60;;;23.40;37.00;;;;;;943478;149;27437;-73
2022/04/21 12:47:15;;;;;;;3.40;1.75;;;23.30;37.40;;;;;;943748;149;27328;-73
2022/04/21 12:49:58;;;;;;;1.47;1.37;;;23.30;37.40;;;;;;943811;149;27383;-73
2022/04/21 12:52:27;;;;;;;3.12;1.30;;;23.30;37.50;;;;;;943694;149;27321;-73
2022/04/21 12:54:54;;;;;;;2.25;2.15;;;23.30;37.60;;;;;;943069;149;27364;-73
2022/04/21 12:57:20;;;;;;;1.95;1.77;;;23.20;37.50;;;;;;943869;149;27357;-73
2022/04/21 12:59:47;;;;;;;1.67;1.57;;;23.10;37.40;;;;;;944639;149;27462;-73
2022/04/21 13:02:16;;;;;;;2.77;1.70;;;23.00;37.30;;;;;;943688;149;27350;-73
2022/04/21 13:04:43;;;;;;;2.10;1.70;;;22.90;37.20;;;;;;943573;149;27511;-73
2022/04/21 13:07:09;;;;;;;1.82;1.60;;;22.70;37.20;;;;;;944467;149;27361;-73
2022/04/21 13:09:36;;;;;;;2.30;1.42;;;22.50;37.30;;;;;;943593;149;27418;-73
2022/04/21 13:12:03;;;;;;;1.65;1.47;;;22.40;37.30;;;;;;944096;149;27381;-73
2022/04/21 13:14:29;;;;;;;4.80;1.90;;;22.20;37.50;;;;;;943765;149;27451;-73
2022/04/21 13:16:56;;;;;;;1.60;1.50;;;22.00;37.60;;;;;;943423;149;27437;-73
2022/04/21 13:19:22;;;;;;;1.42;1.32;;;21.90;37.70;;;;;;943885;149;27387;-73
2022/04/21 13:21:58;;;;;;;1.65;1.55;;;21.70;37.80;;;;;;944405;149;27938;-73
2022/04/21 13:24:28;;;;;;;1.60;1.50;;;21.60;38.10;;;;;;943726;149;27369;-73
2022/04/21 13:26:54;;;;;;;1.40;1.30;;;21.40;38.30;;;;;;944584;149;27417;-73
2022/04/21 13:29:21;;;;;;;1.30;1.20;;;21.40;38.50;;;;;;943851;149;27433;-73
2022/04/21 13:34:32;;;;;;;2.25;1.50;;;21.30;39.10;;;;;;945325;151;27371;-73
2022/04/21 13:36:59;;;;;;;1.27;1.17;;;21.40;39.30;;;;;;945260;149;27373;-73
2022/04/21 13:39:25;;;;;;;1.92;1.40;;;21.50;39.30;;;;;;945478;151;27881;-73
2022/04/21 13:41:52;;;;;;;2.10;1.40;;;21.50;39.90;;;;;;945277;151;27345;-73
2022/04/21 13:44:18;;;;;;;1.35;1.25;;;21.60;39.10;;;;;;944954;151;27333;-73
2022/04/21 13:46:45;;;;;;;1.50;1.40;;;21.70;39.10;;;;;;945358;151;27679;-73
2022/04/21 13:49:12;;;;;;;1.75;1.37;;;21.70;39.10;;;;;;945173;151;27304;-73